METAR Rapporter från flygplatser

 

ESTA - Ängelholm, Sweden
Distance from station: SSV 17km
Uppdaterad: 2019-03-25 09:50
Övervägande molnigt
Övervägande molnigt
 Vind från NO
Vind: NO 15 km/h
Temperatur: 4°C
Wind Chill: 1°C
Daggpunkt: 3°C
Luftfuktighet: 93%
Barometer: 1009 hPa
Clouds: Övervägande molnigt
Visibility: 10 km
Cloud details: Övervägande molnigt 213 m
2019/03/25 08:50 ESTA 250850Z 04008KT 9999 BKN007 04/03 Q1009
ESMT - Halmstad, Sweden
Distance from station: N 26km
Uppdaterad: 2019-03-25 09:50
Övervägande molnigt
Övervägande molnigt
 Vind från ONO
Vind: ONO 15 km/h
Temperatur: 5°C
Wind Chill: 2°C
Daggpunkt: 3°C
Luftfuktighet: 87%
Barometer: 1010 hPa
Clouds: Övervägande molnigt
Visibility: 10 km
Cloud details: Övervägande molnigt 305 m
2019/03/25 08:50 ESMT 250850Z 07008KT 9999 BKN010 05/03 Q1010
 
ESTL - Ljungbyhed, Sweden
Distance from station: SSO 45km
Uppdaterad: 2019-03-25 09:50
Light drizzle, Helmulet
Light drizzle, Helmulet
 Vind från NNO
Vind: NNO 7 km/h
Temperatur: 4°C
Wind Chill: 2°C
Daggpunkt: 4°C
Luftfuktighet: 100%
Barometer: 1009 hPa
Summering: Light Drizzle
Clouds: Helmulet
Visibility: 10 km
Cloud details: Delvis molnigt 152 m
Övervägande molnigt 213 m
Helmulet 335 m
2019/03/25 08:50 ESTL 250850Z AUTO 03004KT 9999 -DZ SCT005/// BKN007/// OVC011/// 04/04 Q1009 REUP
EKCH - Copenhagen/Kastrup, Denmark
Distance from station: S 92km
Uppdaterad: 2019-03-25 10:20
Övervägande molnigt
Övervägande molnigt
 Vind från NNV
Vind: NNV 17 km/h
Temperatur: 5°C
Wind Chill: 2°C
Daggpunkt: 2°C
Luftfuktighet: 81%
Barometer: 1009 hPa
Clouds: Övervägande molnigt
Visibility: 10 km
Cloud details: Delvis molnigt 335 m
Enstaka moln 457 m
Övervägande molnigt 549 m
2019/03/25 09:20 EKCH 250920Z 33009KT 310V010 9999 SCT011 FEW015CB BKN018 05/02 Q1009 TEMPO BKN012
 
ESMK - Kristianstad/Everöd, Sweden
Distance from station: SO 93km
Uppdaterad: 2019-03-25 09:50
Light drizzle, Helmulet
Light drizzle, Helmulet
 Vind från O
Vind: O 13 km/h
Temperatur: 4°C
Wind Chill: 1°C
Daggpunkt: 4°C
Luftfuktighet: 100%
Barometer: 1008 hPa
Summering: Light Drizzle
Clouds: Helmulet
Visibility: 10 km
Cloud details: Enstaka moln 152 m
Delvis molnigt 183 m
Helmulet 335 m
2019/03/25 08:50 ESMK 250850Z 10007KT 9999 -DZ FEW005 SCT006 OVC011 04/04 Q1008
ESMS - Malmö/Sturup, Sweden
Distance from station: SSO 104km
Uppdaterad: 2019-03-25 09:50
Helmulet
Helmulet
 Vind från NV
Vind: NV 17 km/h
Temperatur: 4°C
Wind Chill: 0°C
Daggpunkt: 2°C
Luftfuktighet: 87%
Barometer: 1008 hPa
Clouds: Helmulet
Visibility: 10 km
Cloud details: Delvis molnigt 274 m
Övervägande molnigt 366 m
Helmulet 457 m
2019/03/25 08:50 ESMS 250850Z 32009KT 9999 SCT009 BKN012 OVC015 04/02 Q1008
 
EKRK - Copenhagen/Roskilde, Denmark
Distance from station: SSV 108km
Uppdaterad: 2019-03-25 10:21
Övervägande molnigt
Övervägande molnigt
 Vind från NNV
Vind: NNV 24 km/h
Temperatur: 4°C
Wind Chill: -1°C
Daggpunkt: 2°C
Luftfuktighet: 87%
Barometer: 1009 hPa
Clouds: Övervägande molnigt
Visibility: 10 km
Cloud details: Enstaka moln 274 m
Delvis molnigt 701 m
Övervägande molnigt 1036 m
2019/03/25 09:21 EKRK 250921Z 34013KT 290V020 9999 FEW009 SCT023 BKN034 04/02 Q1009
ESMX - Växjö/Kronoberg, Sweden
Distance from station: ONO 124km
Uppdaterad: 2019-03-25 09:50
Övervägande molnigt
Övervägande molnigt
 Vind från N
Vind: N 7 km/h
Temperatur: 5°C
Wind Chill: 3°C
Daggpunkt: 4°C
Luftfuktighet: 93%
Barometer: 1009 hPa
Clouds: Övervägande molnigt
Visibility: 10 km
Cloud details: Delvis molnigt 457 m
Övervägande molnigt 1158 m
2019/03/25 08:50 ESMX 250850Z 36004KT 340V070 9999 SCT015 BKN038 05/04 Q1009
 
EKAH - Tirstrup, Denmark
Distance from station: V 141km
Uppdaterad: 2019-03-25 10:20
Övervägande molnigt
Övervägande molnigt
 Vind från N
Vind: N 19 km/h
Temperatur: 6°C
Wind Chill: 3°C
Daggpunkt: 3°C
Luftfuktighet: 81%
Barometer: 1012 hPa
Clouds: Övervägande molnigt
Visibility: 10 km
Cloud details: Övervägande molnigt 457 m
Övervägande molnigt 853 m
2019/03/25 09:20 EKAH 250920Z AUTO 35010KT 9999NDV BKN015/// BKN028/// 06/03 Q1012
ESGG - Göteborg/Landvetter, Sweden
Distance from station: NNV 142km
Uppdaterad: 2019-03-25 09:50
Övervägande molnigt
Övervägande molnigt
 Vind från NO
Vind: NO 17 km/h
Temperatur: 5°C
Wind Chill: 2°C
Daggpunkt: 2°C
Luftfuktighet: 81%
Barometer: 1011 hPa
Clouds: Övervägande molnigt
Visibility: 10 km
Cloud details: Övervägande molnigt 579 m
2019/03/25 08:50 ESGG 250850Z 04009KT 9999 BKN019 05/02 Q1011 R03/29//95
 
ESDF - Ronneby, Sweden
Distance from station: O 147km
Uppdaterad: 2019-03-25 09:50
Övervägande molnigt
Övervägande molnigt
 Vind från N
Vind: N 6 km/h
Temperatur: 5°C
Daggpunkt: 2°C
Luftfuktighet: 81%
Barometer: 1009 hPa
Clouds: Övervägande molnigt
Visibility: 10 km
Cloud details: Delvis molnigt 488 m
Övervägande molnigt 1036 m
2019/03/25 08:50 ESDF 250850Z 01003KT 340V040 9999 SCT016 BKN034 05/02 Q1009
ESGP - Göteborg/Säve, Sweden
Distance from station: NNV 161km
Uppdaterad: 2017-01-02 11:20
NOT Current
Klart
Klart
 Vind från calm
Vind: Vindstilla
Temperatur: -2°C
Daggpunkt: -4°C
Luftfuktighet: 86%
Barometer: 1012 hPa
Clouds: Klart
Visibility: 10 km
2017/01/02 10:20 ESGP 021020Z AUTO 00000KT 9999 NCD M02/M04 Q1012
 
ESGJ - Jönköping Airport, Sweden
Distance from station: NNO 164km
Uppdaterad: 2019-03-25 09:50
Övervägande molnigt
Övervägande molnigt
 Vind från NNO
Vind: NNO 19 km/h
Temperatur: 4°C
Wind Chill: 0°C
Daggpunkt: 2°C
Luftfuktighet: 87%
Barometer: 1010 hPa
Clouds: Övervägande molnigt
Visibility: 10 km
Cloud details: Enstaka moln 305 m
Delvis molnigt 396 m
Övervägande molnigt 671 m
2019/03/25 08:50 ESGJ 250850Z 02010KT 9999 FEW010 SCT013 BKN022 04/02 Q1010 R19/190070
EKAV - Avno, Denmark
Distance from station: SSV 168km
Uppdaterad: 2016-10-04 06:20
NOT Current
Klart
Klart
 
Barometer: 1039 hPa
Clouds: Klart
Visibility: 10 km
2016/10/04 04:20 EKAV 040420Z AUTO ///// 9999NDV NCD ///// Q1039
 
EKRN - Rönne, Denmark
Distance from station: SO 191km
Uppdaterad: 2019-03-25 10:20
Övervägande molnigt
Övervägande molnigt
 Vind från SSV
Vind: SSV 7 km/h
Temperatur: 3°C
Wind Chill: 1°C
Daggpunkt: 2°C
Luftfuktighet: 93%
Barometer: 1008 hPa
Clouds: Övervägande molnigt
Visibility: 10 km
Cloud details: Enstaka moln 183 m
Övervägande molnigt 213 m
Övervägande molnigt 1920 m
2019/03/25 09:20 EKRN 250920Z AUTO 20004KT 170V230 9999 FEW006/// BKN007/// BKN063/// 03/02 Q1008
EKOD - Odense/Beldringe, Denmark
Distance from station: VSV 193km
Uppdaterad: 2019-03-25 09:50
Övervägande molnigt
Övervägande molnigt
 Vind från NV
Vind: NV 22 km/h
Temperatur: 5°C
Wind Chill: 1°C
Daggpunkt: 3°C
Luftfuktighet: 87%
Barometer: 1011 hPa
Clouds: Övervägande molnigt
Visibility: 10 km
Cloud details: Enstaka moln 792 m
Övervägande molnigt 914 m
2019/03/25 08:50 EKOD 250850Z 31012KT 9999 FEW026 BKN030 05/03 Q1011
 
EKYT - AAlborg, Denmark
Distance from station: VNV 199km
Uppdaterad: 2019-03-25 10:20
Övervägande molnigt
Övervägande molnigt
 Vind från NO
Vind: NO 20 km/h
Temperatur: 6°C
Wind Chill: 2°C
Daggpunkt: 3°C
Luftfuktighet: 81%
Barometer: 1013 hPa
Clouds: Övervägande molnigt
Visibility: 10 km
Cloud details: Delvis molnigt 427 m
Övervägande molnigt 518 m
Övervägande molnigt 610 m
2019/03/25 09:20 EKYT 250920Z AUTO 04011KT 9999 SCT014/// BKN017/// BKN020/// 06/03 Q1013
EKSN - Sindal Airport, Denmark
Distance from station: NV 201km
Uppdaterad: 2019-03-25 09:50
Övervägande molnigt
Övervägande molnigt
 Vind från NNO
Vind: NNO 19 km/h
Temperatur: 5°C
Wind Chill: 1°C
Daggpunkt: 4°C
Luftfuktighet: 93%
Barometer: 1013 hPa
Clouds: Övervägande molnigt
Visibility: 10 km
Cloud details: Övervägande molnigt 518 m
2019/03/25 08:50 EKSN 250850Z 02010KT 9999 BKN017 05/04 Q1013
 
ESMQ - Kalmar, Sweden
Distance from station: O 211km
Uppdaterad: 2019-03-25 09:50
Helmulet
Helmulet
 Vind från VNV
Vind: VNV 6 km/h
Temperatur: 5°C
Daggpunkt: 3°C
Luftfuktighet: 87%
Barometer: 1009 hPa
Clouds: Helmulet
Visibility: 10 km
Cloud details: Enstaka moln 244 m
Delvis molnigt 701 m
Helmulet 1097 m
2019/03/25 08:50 ESMQ 250850Z 30003KT 260V320 9999 FEW008 SCT023 OVC036 05/03 Q1009
ESGT - Trollhättan, Sweden
Distance from station: N 212km
Uppdaterad: 2019-03-25 09:50
Övervägande molnigt
Övervägande molnigt
 Vind från NNO
Vind: NNO 20 km/h
Temperatur: 4°C
Wind Chill: -1°C
Daggpunkt: 2°C
Luftfuktighet: 87%
Barometer: 1012 hPa
Clouds: Övervägande molnigt
Visibility: 10 km
Cloud details: Övervägande molnigt 457 m
Övervägande molnigt 579 m
2019/03/25 08:50 ESGT 250850Z 02011KT 360V060 9999 BKN015 BKN019 04/02 Q1012